Terminal Aerodrome Forecast
Issued by NWS

Home | Current Version | Previous Version | Graphics & Text | Print | Product List | Glossary On
Versions: 1 2 3 4 5 6 7 8 9 10 11 12 13 14 15 16 17 18 19 20 21 22 23 24
738
FTUS43 KTOP 211129
TAFFOE
TAF
KFOE 211129Z 2112/2212 36011KT P6SM SCT100
     FM211700 04011KT P6SM SCT100
     FM220300 06009KT 6SM -SNPL SCT020 OVC035
     FM220500 06008KT 3SM -SNPL OVC013
     FM220800 05008KT 3SM -FZRAPL OVC006=

USA.gov is the U.S. government's official web portal to all federal, state and local government web resources and services.